createdAt,value
2023-05-05T00:03:19.627Z,3.30
2023-05-05T00:08:21.516Z,3.08
2023-05-05T00:13:23.074Z,3.40
2023-05-05T00:18:24.546Z,3.55
2023-05-05T00:23:27.427Z,3.22
2023-05-05T00:28:28.892Z,3.42
2023-05-05T00:33:30.540Z,2.65
2023-05-05T00:38:32.080Z,3.22
2023-05-05T00:43:33.548Z,2.90
2023-05-05T00:48:35.001Z,3.60
2023-05-05T00:53:36.513Z,3.63
2023-05-05T00:58:37.983Z,3.17
2023-05-05T01:03:39.790Z,2.83
2023-05-05T01:08:49.950Z,3.70
2023-05-05T01:14:06.213Z,2.80
2023-05-05T01:19:40.959Z,2.45
2023-05-05T01:25:05.518Z,2.22
2023-05-05T01:30:26.734Z,2.58
2023-05-05T01:35:29.862Z,2.05
2023-05-05T01:40:33.595Z,2.47
2023-05-05T01:45:36.185Z,2.80
2023-05-05T01:50:37.689Z,2.13
2023-05-05T01:55:39.214Z,2.00
2023-05-05T02:00:40.683Z,2.67
2023-05-05T02:05:42.163Z,1.85
2023-05-05T02:10:43.649Z,2.17
2023-05-05T02:15:45.282Z,2.50
2023-05-05T02:20:46.754Z,2.50
2023-05-05T02:25:52.957Z,2.88
2023-05-05T02:30:58.268Z,4.15
2023-05-05T02:35:59.865Z,3.17
2023-05-05T02:41:01.320Z,3.85
2023-05-05T02:46:02.868Z,2.25
2023-05-05T02:51:04.508Z,2.03
2023-05-05T02:56:28.868Z,4.13
2023-05-05T03:01:59.267Z,2.50
2023-05-05T03:07:14.416Z,3.80
2023-05-05T03:12:21.823Z,2.60
2023-05-05T03:17:23.293Z,2.97
2023-05-05T03:22:24.845Z,2.60
2023-05-05T03:27:26.310Z,3.22
2023-05-05T03:32:27.806Z,2.92
2023-05-05T03:37:29.293Z,3.67
2023-05-05T03:42:30.748Z,2.28
2023-05-05T03:47:32.257Z,3.17
2023-05-05T03:52:33.737Z,2.95
2023-05-05T03:57:35.357Z,4.43
2023-05-05T04:02:36.936Z,3.83
2023-05-05T04:07:38.428Z,3.15
2023-05-05T04:12:39.918Z,3.65
2023-05-05T04:17:41.434Z,3.08
2023-05-05T04:22:43.005Z,4.40
2023-05-05T04:27:44.461Z,5.07
2023-05-05T04:32:45.944Z,4.60
2023-05-05T04:37:47.416Z,4.43
2023-05-05T04:42:48.935Z,5.50
2023-05-05T04:47:50.434Z,4.82
2023-05-05T04:52:52.779Z,5.13
2023-05-05T04:57:54.394Z,5.13
2023-05-05T05:02:56.099Z,4.68
2023-05-05T05:07:57.641Z,4.40
2023-05-05T05:12:59.152Z,5.82
2023-05-05T05:18:00.703Z,5.35
2023-05-05T05:23:02.336Z,5.53
2023-05-05T05:28:10.058Z,5.60
2023-05-05T05:33:12.513Z,5.47
2023-05-05T05:38:14.162Z,4.93
2023-05-05T05:43:15.637Z,4.85
2023-05-05T05:48:17.096Z,4.75
2023-05-05T05:53:18.605Z,4.60
2023-05-05T05:58:20.086Z,4.93
2023-05-05T06:03:21.663Z,4.88
2023-05-05T06:08:24.979Z,4.97
2023-05-05T06:13:26.649Z,4.68
2023-05-05T06:18:30.424Z,4.53
2023-05-05T06:23:31.898Z,4.85
2023-05-05T06:28:33.399Z,5.20
2023-05-05T06:33:34.863Z,5.50
2023-05-05T06:38:36.411Z,5.47
2023-05-05T06:43:37.882Z,4.70
2023-05-05T06:48:39.337Z,5.45
2023-05-05T06:53:41.013Z,5.18
2023-05-05T06:58:42.565Z,5.18
2023-05-05T07:03:44.702Z,5.95
2023-05-05T07:08:46.245Z,4.90
2023-05-05T07:13:49.191Z,4.55
2023-05-05T07:18:50.696Z,4.85
2023-05-05T07:23:52.546Z,5.43
2023-05-05T07:28:56.022Z,4.45
2023-05-05T07:33:57.465Z,4.43
2023-05-05T07:38:58.933Z,4.70
2023-05-05T07:44:01.143Z,5.30
2023-05-05T07:49:03.007Z,5.22
2023-05-05T07:54:04.470Z,4.78
2023-05-05T07:59:05.988Z,5.95
2023-05-05T08:04:07.649Z,5.15
2023-05-05T08:09:10.320Z,4.85
2023-05-05T08:19:27.586Z,4.47
2023-05-05T08:24:30.286Z,4.82
2023-05-05T08:29:31.766Z,5.10
2023-05-05T08:34:33.245Z,5.50
2023-05-05T08:39:34.702Z,5.10
2023-05-05T08:44:36.228Z,4.85
2023-05-05T08:49:42.454Z,4.80
2023-05-05T08:54:51.499Z,5.53
2023-05-05T08:59:53.046Z,4.68
2023-05-05T09:04:54.501Z,4.93
2023-05-05T09:09:55.947Z,5.00
2023-05-05T09:14:59.310Z,4.57
2023-05-05T09:20:05.126Z,4.28
2023-05-05T09:25:07.737Z,3.90
2023-05-05T09:30:10.738Z,4.00
2023-05-05T09:35:12.232Z,4.05
2023-05-05T09:40:15.814Z,3.60
2023-05-05T09:45:17.172Z,4.10
2023-05-05T09:50:19.126Z,4.40
2023-05-05T09:55:20.856Z,3.58
2023-05-05T10:00:22.416Z,4.53
2023-05-05T10:05:23.942Z,4.47
2023-05-05T10:10:27.477Z,4.38
2023-05-05T10:15:30.088Z,4.60
2023-05-05T10:20:31.637Z,4.28
2023-05-05T10:25:36.996Z,4.22
2023-05-05T10:30:42.718Z,4.53
2023-05-05T10:35:44.468Z,4.85
2023-05-05T10:40:45.966Z,4.47
2023-05-05T10:45:51.924Z,4.85
2023-05-05T10:51:09.090Z,4.50
2023-05-05T10:56:40.288Z,4.60
2023-05-05T11:01:41.867Z,4.25
2023-05-05T11:07:11.815Z,5.32
2023-05-05T11:12:16.005Z,4.78
2023-05-05T11:17:46.357Z,4.78
2023-05-05T11:23:03.053Z,5.00
2023-05-05T11:28:14.651Z,4.63
2023-05-05T11:33:28.992Z,3.88
2023-05-05T11:38:36.370Z,4.07
2023-05-05T11:43:37.996Z,4.03
2023-05-05T11:48:46.222Z,4.95
2023-05-05T11:53:49.345Z,4.20
2023-05-05T11:59:08.536Z,4.15
2023-05-05T12:04:16.238Z,3.72
2023-05-05T12:09:18.895Z,4.50
2023-05-05T12:14:20.742Z,3.83
2023-05-05T12:19:22.376Z,3.97
2023-05-05T12:24:23.832Z,4.75
2023-05-05T12:29:26.072Z,4.93
2023-05-05T12:34:27.592Z,4.35
2023-05-05T12:39:38.209Z,5.20
2023-05-05T12:44:40.114Z,4.72
2023-05-05T12:49:45.859Z,4.68
2023-05-05T12:54:57.387Z,5.03
2023-05-05T12:59:58.854Z,4.68
2023-05-05T13:05:00.358Z,4.88
2023-05-05T13:10:10.359Z,4.25
2023-05-05T13:15:12.160Z,3.72
2023-05-05T13:20:14.042Z,4.45
2023-05-05T13:25:15.516Z,4.78
2023-05-05T13:30:17.002Z,4.68
2023-05-05T13:35:18.478Z,4.60
2023-05-05T13:40:19.970Z,4.32
2023-05-05T13:45:21.470Z,4.20
2023-05-05T13:50:23.880Z,4.35
2023-05-05T14:00:27.749Z,3.70
2023-05-05T14:05:29.223Z,5.43
2023-05-05T14:10:31.028Z,4.38
2023-05-05T14:15:32.758Z,4.22
2023-05-05T14:20:34.301Z,4.05
2023-05-05T14:25:35.749Z,4.65
2023-05-05T14:30:37.223Z,4.90
2023-05-05T14:35:38.696Z,5.28
2023-05-05T14:40:40.550Z,3.83
2023-05-05T14:45:42.032Z,5.25
2023-05-05T14:50:46.225Z,4.65
2023-05-05T14:55:47.740Z,4.05
2023-05-05T15:00:49.219Z,4.20
2023-05-05T15:05:50.745Z,3.85
2023-05-05T15:10:52.307Z,3.60
2023-05-05T15:15:53.832Z,4.90
2023-05-05T15:20:55.406Z,4.03
2023-05-05T15:25:56.893Z,3.88
2023-05-05T15:31:02.014Z,4.00
2023-05-05T15:36:03.536Z,3.88
2023-05-05T15:41:06.356Z,2.78
2023-05-05T15:46:07.838Z,3.95
2023-05-05T15:51:11.446Z,3.88
2023-05-05T15:56:12.955Z,3.38
2023-05-05T16:01:17.013Z,2.90
2023-05-05T16:06:18.545Z,3.10
2023-05-05T16:11:22.324Z,3.97
2023-05-05T16:16:23.966Z,3.13
2023-05-05T16:21:25.721Z,3.75
2023-05-05T16:26:27.208Z,2.95
2023-05-05T16:31:28.769Z,2.65
2023-05-05T16:36:30.270Z,3.65
2023-05-05T16:41:31.754Z,3.13
2023-05-05T16:46:33.957Z,3.22
2023-05-05T16:51:35.475Z,2.70
2023-05-05T16:56:36.945Z,2.97
2023-05-05T17:01:38.481Z,3.65
2023-05-05T17:06:40.019Z,3.50
2023-05-05T17:11:41.547Z,3.33
2023-05-05T17:16:43.167Z,2.85
2023-05-05T17:21:44.707Z,3.10
2023-05-05T17:26:47.192Z,3.10
2023-05-05T17:31:51.773Z,3.00
2023-05-05T17:36:53.312Z,3.33
2023-05-05T17:41:55.716Z,4.10
2023-05-05T17:47:04.109Z,3.03
2023-05-05T17:52:05.608Z,3.33
2023-05-05T17:57:07.082Z,4.38
2023-05-05T18:02:08.689Z,3.40
2023-05-05T18:07:11.855Z,3.20
2023-05-05T18:12:13.335Z,8.45
2023-05-05T18:17:14.881Z,4.28
2023-05-05T18:22:16.873Z,4.00
2023-05-05T18:27:18.468Z,3.30
2023-05-05T18:32:29.198Z,3.67
2023-05-05T18:37:37.046Z,3.90
2023-05-05T18:42:43.051Z,3.97
2023-05-05T18:47:44.793Z,4.30
2023-05-05T18:52:46.286Z,3.40
2023-05-05T18:57:47.857Z,3.47
2023-05-05T19:02:49.390Z,3.30
2023-05-05T19:07:50.877Z,3.30
2023-05-05T19:12:52.437Z,3.25
2023-05-05T19:17:54.278Z,3.63
2023-05-05T19:22:58.169Z,3.80
2023-05-05T19:27:59.677Z,4.00
2023-05-05T19:33:01.177Z,3.90
2023-05-05T19:38:02.676Z,3.38
2023-05-05T19:43:04.243Z,3.90
2023-05-05T19:48:06.287Z,3.35
2023-05-05T19:53:07.747Z,3.38
2023-05-05T19:58:09.292Z,3.40
2023-05-05T20:03:11.022Z,4.40
2023-05-05T20:08:12.608Z,4.03
2023-05-05T20:13:14.212Z,3.90
2023-05-05T20:18:15.759Z,3.50
2023-05-05T20:23:17.213Z,3.30
2023-05-05T20:28:18.698Z,3.42
2023-05-05T20:33:20.202Z,4.25
2023-05-05T20:38:21.760Z,3.38
2023-05-05T20:43:26.097Z,3.38
2023-05-05T20:53:47.856Z,3.90
2023-05-05T20:58:49.495Z,3.42
2023-05-05T21:03:51.021Z,3.28
2023-05-05T21:08:52.495Z,4.05
2023-05-05T21:13:54.063Z,3.53
2023-05-05T21:18:55.584Z,3.92
2023-05-05T21:23:57.625Z,3.58
2023-05-05T21:28:59.151Z,3.95
2023-05-05T21:34:00.692Z,4.35
2023-05-05T21:39:02.238Z,4.10
2023-05-05T21:44:03.688Z,3.80
2023-05-05T21:49:15.167Z,4.25
2023-05-05T21:54:18.672Z,4.32
2023-05-05T21:59:20.294Z,4.30
2023-05-05T22:04:22.083Z,4.18
2023-05-05T22:09:23.573Z,4.97
2023-05-05T22:14:25.484Z,4.38
2023-05-05T22:19:27.050Z,4.50
2023-05-05T22:24:30.062Z,5.47
2023-05-05T22:29:32.373Z,4.40
2023-05-05T22:34:38.487Z,5.72
2023-05-05T22:39:40.574Z,4.90
2023-05-05T22:44:42.033Z,4.28
2023-05-05T22:49:43.560Z,4.53
2023-05-05T22:54:45.203Z,3.67
2023-05-05T22:59:47.255Z,3.28
2023-05-05T23:04:48.845Z,4.00
2023-05-05T23:09:50.357Z,3.83
2023-05-05T23:14:52.365Z,3.03
2023-05-05T23:19:53.835Z,3.13
2023-05-05T23:24:55.318Z,3.63
2023-05-05T23:29:56.791Z,3.35
2023-05-05T23:34:58.261Z,3.05
2023-05-05T23:39:59.807Z,3.33
2023-05-05T23:45:01.332Z,2.97
2023-05-05T23:50:03.213Z,3.10
2023-05-05T23:55:05.604Z,3.20
